Time;durP1;ratioP1;P1;durP2;ratioP2;P2;SDS_P1;SDS_P2;PMS_P1;PMS_P2;Temp;Humidity;BMP_temperature;BMP_pressure;BME280_temperature;BME280_humidity;BME280_pressure;Samples;Min_cycle;Max_cycle;Signal;HPM_P1;HPM_P2
2022/11/04 00:01:15;;;;;;;12.25;5.30;;;;;;;11.17;nan;-24128.91;5035312;28;20175;-71
2022/11/04 00:03:41;;;;;;;10.37;6.47;;;;;;;11.44;nan;-24136.66;5035332;28;20182;-72
2022/11/04 00:06:07;;;;;;;16.73;6.97;;;;;;;11.30;nan;-24132.56;5034723;28;20184;-72
2022/11/04 00:08:33;;;;;;;15.50;5.40;;;;;;;10.97;nan;-24123.53;5035166;28;20544;-72
2022/11/04 00:13:43;;;;;;;12.07;5.87;;;;;;;10.87;nan;-24120.59;5035217;28;20209;-73
2022/11/04 00:18:54;;;;;;;16.80;6.83;;;;;;;10.56;nan;-24112.13;5035358;28;20348;-72
2022/11/04 00:29:31;;;;;;;25.80;10.30;;;;;;;10.84;nan;-24119.75;5034383;28;20185;-73
2022/11/04 00:34:41;;;;;;;25.03;10.70;;;;;;;10.55;nan;-24111.69;5034572;28;20186;-72
2022/11/04 00:37:07;;;;;;;19.03;8.73;;;;;;;10.22;nan;-24102.38;5034519;28;20172;-72
2022/11/04 00:39:33;;;;;;;20.87;10.03;;;;;;;10.08;nan;-24098.56;5034022;28;20555;-72
2022/11/04 00:41:58;;;;;;;22.03;9.37;;;;;;;10.56;nan;-24111.97;5034166;28;20171;-72
2022/11/04 00:44:23;;;;;;;22.37;10.17;;;;;;;9.86;nan;-24092.50;5034177;28;20218;-72
2022/11/04 00:46:49;;;;;;;20.13;7.53;;;;;;;10.21;nan;-24102.25;5034052;28;20178;-71
2022/11/04 00:49:14;;;;;;;19.57;8.60;;;;;;;10.59;nan;-24112.97;5033872;28;20194;-72
2022/11/04 00:51:40;;;;;;;22.53;8.27;;;;;;;10.50;nan;-24110.44;5034211;28;20230;-72
2022/11/04 00:54:06;;;;;;;17.90;8.77;;;;;;;10.27;nan;-24103.94;5033897;28;20305;-72
2022/11/04 00:56:31;;;;;;;22.60;9.17;;;;;;;10.36;nan;-24106.34;5033971;28;20631;-71
2022/11/04 00:58:59;;;;;;;17.00;7.97;;;;;;;10.17;nan;-24101.13;5034156;28;20258;-72
2022/11/04 01:01:25;;;;;;;19.60;8.00;;;;;;;10.20;nan;-24101.97;5034056;28;20171;-72
2022/11/04 01:03:52;;;;;;;16.37;7.93;;;;;;;9.79;nan;-24090.38;5033942;28;20610;-72
2022/11/04 01:06:19;;;;;;;12.97;6.40;;;;;;;9.70;nan;-24088.13;5033716;28;20182;-72
2022/11/04 01:08:45;;;;;;;16.43;7.20;;;;;;;9.49;nan;-24082.03;5033623;28;20167;-72
2022/11/04 01:11:11;;;;;;;11.07;6.30;;;;;;;9.87;nan;-24092.63;5034150;28;20194;-72
2022/11/04 01:13:38;;;;;;;21.37;6.23;;;;;;;9.79;nan;-24090.53;5031814;28;20649;-72
2022/11/04 01:16:06;;;;;;;9.73;5.80;;;;;;;9.46;nan;-24081.34;5032504;28;20210;-71
2022/11/04 01:18:32;;;;;;;13.40;5.73;;;;;;;9.52;nan;-24083.03;5033866;28;20690;-73
2022/11/04 01:21:02;;;;;;;12.37;5.37;;;;;;;9.75;nan;-24089.53;5033907;28;20266;-72
2022/11/04 01:23:28;;;;;;;9.67;5.53;;;;;;;9.74;nan;-24089.25;5033478;28;20218;-71
2022/11/04 01:25:53;;;;;;;12.10;5.47;;;;;;;9.55;nan;-24083.88;5032786;28;20262;-71
2022/11/04 01:28:18;;;;;;;12.47;6.40;;;;;;;9.08;nan;-24070.72;5032348;28;20631;-71
2022/11/04 01:30:44;;;;;;;18.10;7.17;;;;;;;9.11;nan;-24071.44;5032083;28;20254;-72
2022/11/04 01:33:09;;;;;;;16.17;6.20;;;;;;;9.38;nan;-24079.06;5032569;28;20172;-72
2022/11/04 01:35:35;;;;;;;14.00;6.40;;;;;;;9.32;nan;-24077.53;5032388;28;20194;-72
2022/11/04 01:38:00;;;;;;;14.07;5.93;;;;;;;9.05;nan;-24069.75;5032034;28;20206;-71
2022/11/04 01:40:26;;;;;;;14.47;6.50;;;;;;;9.00;nan;-24068.34;5032227;28;20649;-71
2022/11/04 01:42:51;;;;;;;15.63;6.47;;;;;;;9.24;nan;-24075.25;5032246;28;20179;-71
2022/11/04 01:45:19;;;;;;;15.50;6.07;;;;;;;9.12;nan;-24071.72;5031588;28;20179;-71
2022/11/04 01:48:06;;;;;;;11.83;5.90;;;;;;;9.17;nan;-24073.13;5021482;28;20282;-72
2022/11/04 01:50:33;;;;;;;9.70;6.27;;;;;;;9.02;nan;-24068.91;5011942;28;20167;-73
2022/11/04 01:53:12;;;;;;;17.40;6.70;;;;;;;9.15;nan;-24072.56;5011849;28;20176;-72
2022/11/04 01:55:44;;;;;;;9.93;6.63;;;;;;;9.10;nan;-24071.31;5011938;28;20206;-73
2022/11/04 01:58:14;;;;;;;13.73;8.03;;;;;;;9.15;nan;-24072.56;5011441;28;20565;-72
2022/11/04 02:00:41;;;;;;;14.30;6.30;;;;;;;8.92;nan;-24066.22;5012085;28;20183;-73
2022/11/04 02:03:49;;;;;;;11.50;6.70;;;;;;;9.12;nan;-24071.72;5011073;28;20187;-71
2022/11/04 02:06:15;;;;;;;22.37;5.90;;;;;;;8.79;nan;-24062.53;4992779;28;20643;-73
2022/11/04 02:08:42;;;;;;;12.00;6.00;;;;;;;9.04;nan;-24069.47;5009230;28;20583;-72
2022/11/04 02:11:07;;;;;;;14.20;6.13;;;;;;;8.43;nan;-24052.63;5010029;28;20188;-72
2022/11/04 02:13:35;;;;;;;12.50;7.10;;;;;;;9.04;nan;-24069.59;5011460;28;20180;-73
2022/11/04 02:16:23;;;;;;;11.93;5.80;;;;;;;9.07;nan;-24070.31;5011387;28;20301;-73
2022/11/04 02:18:51;;;;;;;13.70;5.53;;;;;;;9.04;nan;-24069.47;5010874;28;20263;-72
2022/11/04 02:21:35;;;;;;;14.43;6.67;;;;;;;8.99;nan;-24068.03;5011388;28;20184;-72
2022/11/04 02:24:31;;;;;;;10.13;5.90;;;;;;;8.86;nan;-24064.50;5012061;28;20176;-72
2022/11/04 02:27:05;;;;;;;13.73;6.63;;;;;;;8.60;nan;-24057.16;4973339;28;1117264;-73
2022/11/04 02:29:37;;;;;;;14.67;6.27;;;;;;;8.99;nan;-24068.03;5012733;28;20187;-73
2022/11/04 02:32:09;;;;;;;11.43;6.73;;;;;;;8.49;nan;-24054.03;5011418;28;20183;-73
2022/11/04 02:34:46;;;;;;;13.73;6.73;;;;;;;8.81;nan;-24063.25;5012841;28;20294;-72
2022/11/04 02:37:31;;;;;;;10.93;5.67;;;;;;;8.88;nan;-24065.06;5013174;28;20183;-73
2022/11/04 02:40:17;;;;;;;11.57;6.47;;;;;;;8.77;nan;-24062.09;5029851;28;20183;-73
2022/11/04 02:42:54;;;;;;;8.40;5.43;;;;;;;8.80;nan;-24062.94;5032418;28;20682;-73
2022/11/04 02:45:32;;;;;;;12.53;5.87;;;;;;;8.68;nan;-24059.56;5032490;28;20175;-73
2022/11/04 02:48:06;;;;;;;11.73;5.67;;;;;;;8.51;nan;-24054.59;5032376;28;20171;-72
2022/11/04 02:50:38;;;;;;;13.53;6.77;;;;;;;8.49;nan;-24054.03;5031858;28;20163;-73
2022/11/04 02:53:24;;;;;;;17.20;6.37;;;;;;;8.60;nan;-24057.28;5032018;28;20179;-73
2022/11/04 02:55:56;;;;;;;11.00;5.73;;;;;;;8.46;nan;-24053.34;5031686;28;20240;-72
2022/11/04 02:58:28;;;;;;;12.70;5.73;;;;;;;8.52;nan;-24055.03;5031769;28;20174;-73
2022/11/04 03:00:56;;;;;;;13.60;6.80;;;;;;;8.41;nan;-24052.06;5030607;28;20178;-72
2022/11/04 03:03:27;;;;;;;9.63;5.67;;;;;;;8.17;nan;-24045.13;5031408;28;20244;-72
2022/11/04 03:05:54;;;;;;;9.97;5.87;;;;;;;8.11;nan;-24043.56;5031615;28;20163;-73
2022/11/04 03:08:33;;;;;;;9.73;5.17;;;;;;;8.13;nan;-24044.00;5031814;28;20206;-73
2022/11/04 03:11:08;;;;;;;10.53;6.30;;;;;;;8.19;nan;-24045.69;5031782;28;20654;-73
2022/11/04 03:13:47;;;;;;;15.57;7.33;;;;;;;8.50;nan;-24054.31;5031570;28;20205;-72
2022/11/04 03:16:18;;;;;;;14.47;6.40;;;;;;;8.12;nan;-24043.69;5031539;28;20195;-72
2022/11/04 03:19:11;;;;;;;12.53;5.67;;;;;;;8.45;nan;-24053.06;5031684;28;20199;-72
2022/11/04 03:21:45;;;;;;;15.47;5.67;;;;;;;8.45;nan;-24053.06;5027090;28;20231;-72
2022/11/04 03:24:11;;;;;;;10.77;4.97;;;;;;;7.82;nan;-24035.47;5031567;28;20160;-72
2022/11/04 03:26:52;;;;;;;9.07;5.23;;;;;;;8.27;nan;-24048.09;5031191;28;20631;-72
2022/11/04 03:29:38;;;;;;;13.47;6.27;;;;;;;7.90;nan;-24037.63;5031543;28;20179;-73
2022/11/04 03:32:09;;;;;;;15.87;7.37;;;;;;;8.18;nan;-24045.53;5031497;28;20182;-72
2022/11/04 03:34:36;;;;;;;13.30;5.87;;;;;;;8.09;nan;-24042.84;5024702;28;20266;-73
2022/11/04 03:37:02;;;;;;;12.57;6.70;;;;;;;8.09;nan;-24042.84;5029321;28;20207;-72
2022/11/04 03:39:27;;;;;;;12.57;6.77;;;;;;;8.03;nan;-24041.28;5015689;28;20179;-73
2022/11/04 03:41:56;;;;;;;9.23;5.70;;;;;;;7.96;nan;-24039.31;5026728;28;20198;-73
2022/11/04 03:44:22;;;;;;;15.33;6.03;;;;;;;7.92;nan;-24038.31;5035452;28;20186;-73
2022/11/04 03:46:51;;;;;;;15.43;6.97;;;;;;;8.10;nan;-24043.13;5035437;28;20171;-72
2022/11/04 03:49:17;;;;;;;12.60;6.47;;;;;;;8.10;nan;-24043.13;5035143;28;20175;-73
2022/11/04 03:51:43;;;;;;;10.43;5.70;;;;;;;8.06;nan;-24042.00;5035344;28;20294;-73
2022/11/04 03:54:08;;;;;;;9.23;6.03;;;;;;;7.76;nan;-24033.78;5034933;28;20612;-72
2022/11/04 03:56:58;;;;;;;10.20;6.03;;;;;;;8.16;nan;-24044.84;5035240;28;20211;-72
2022/11/04 03:59:35;;;;;;;10.90;5.60;;;;;;;8.19;nan;-24045.69;5022641;28;20299;-73
2022/11/04 04:02:30;;;;;;;13.10;6.77;;;;;;;8.28;nan;-24048.38;5029384;28;20182;-72
2022/11/04 04:04:59;;;;;;;18.93;7.43;;;;;;;8.00;nan;-24040.59;5013008;28;20330;-72
2022/11/04 04:07:38;;;;;;;16.83;6.97;;;;;;;8.36;nan;-24050.50;5029979;28;20209;-72
2022/11/04 04:13:28;;;;;;;19.37;8.53;;;;;;;8.53;nan;-24055.31;5024505;28;20194;-73
2022/11/04 04:15:59;;;;;;;17.30;7.43;;;;;;;8.28;nan;-24048.38;5017861;28;20239;-73
2022/11/04 04:18:40;;;;;;;10.00;6.17;;;;;;;8.42;nan;-24052.34;5020083;28;20306;-73
2022/11/04 04:21:10;;;;;;;15.73;7.20;;;;;;;8.75;nan;-24061.41;5021331;28;20193;-72
2022/11/04 04:29:09;;;;;;;19.87;7.83;;;;;;;7.97;nan;-24039.72;5018762;28;20710;-72
2022/11/04 04:31:49;;;;;;;15.30;6.70;;;;;;;8.48;nan;-24047.53;5019443;28;20184;-72
2022/11/04 04:34:17;;;;;;;10.67;6.23;;;;;;;8.90;nan;-24065.50;5025503;28;20269;-74
2022/11/04 04:37:08;;;;;;;24.00;7.63;;;;;;;9.04;nan;-24069.59;5020043;28;20195;-73
2022/11/04 04:45:30;;;;;;;11.13;6.87;;;;;;;8.90;nan;-24065.50;5020281;28;20193;-73
2022/11/04 04:47:56;;;;;;;12.53;7.50;;;;;;;8.82;nan;-24063.38;5019381;28;20191;-73
2022/11/04 04:50:24;;;;;;;18.43;7.40;;;;;;;9.08;nan;-24070.72;5018811;28;20187;-72
2022/11/04 04:52:52;;;;;;;11.07;5.70;;;;;;;8.75;nan;-24061.41;5018586;28;20726;-72
2022/11/04 04:58:39;;;;;;;9.80;6.07;;;;;;;8.43;nan;-24052.63;5016368;28;20218;-72
2022/11/04 05:01:07;;;;;;;14.47;7.77;;;;;;;9.02;nan;-24069.03;5018831;28;20192;-72
2022/11/04 05:03:33;;;;;;;7.63;5.10;;;;;;;8.75;nan;-24061.53;5018574;28;20171;-72
2022/11/04 05:05:59;;;;;;;16.73;7.50;;;;;;;9.18;nan;-24073.56;5024646;28;20639;-73
2022/11/04 05:08:24;;;;;;;12.73;6.57;;;;;;;9.18;nan;-24073.56;5022831;28;20183;-72
2022/11/04 05:10:49;;;;;;;14.17;7.07;;;;;;;9.21;nan;-24074.41;5016993;28;20184;-73
2022/11/04 05:13:28;;;;;;;12.67;6.67;;;;;;;9.14;nan;-24072.44;5017793;28;20183;-72
2022/11/04 05:16:03;;;;;;;9.33;5.87;;;;;;;9.23;nan;-24074.84;5018578;28;20547;-74
2022/11/04 05:18:28;;;;;;;13.27;6.07;;;;;;;9.17;nan;-24073.28;5018184;28;20197;-72
2022/11/04 05:20:54;;;;;;;9.90;6.20;;;;;;;9.24;nan;-24075.13;5018215;28;20179;-72
2022/11/04 05:23:19;;;;;;;12.03;5.73;;;;;;;9.24;nan;-24075.13;5033139;28;20184;-74
2022/11/04 05:25:45;;;;;;;10.00;5.73;;;;;;;9.12;nan;-24071.72;5019758;28;20234;-73
2022/11/04 05:28:10;;;;;;;12.80;5.97;;;;;;;8.87;nan;-24064.78;5018904;28;20191;-74
2022/11/04 05:30:36;;;;;;;11.37;6.13;;;;;;;9.49;nan;-24082.03;5017382;28;20712;-73
2022/11/04 05:33:01;;;;;;;18.47;7.37;;;;;;;9.20;nan;-24074.00;5017882;28;20274;-74
2022/11/04 05:35:27;;;;;;;11.90;6.30;;;;;;;9.53;nan;-24083.31;5018534;28;20305;-75
2022/11/04 05:37:55;;;;;;;11.63;6.10;;;;;;;9.37;nan;-24078.66;5017283;28;20183;-75
2022/11/04 05:40:20;;;;;;;10.07;5.90;;;;;;;9.64;nan;-24086.44;5018126;28;20175;-73
2022/11/04 05:42:46;;;;;;;22.40;8.53;;;;;;;9.28;nan;-24076.25;5017616;28;20429;-74
2022/11/04 05:45:11;;;;;;;17.37;7.17;;;;;;;9.52;nan;-24083.03;5018753;28;20352;-74
2022/11/04 05:47:36;;;;;;;12.90;6.80;;;;;;;9.42;nan;-24080.22;5016809;28;20199;-75
2022/11/04 05:50:02;;;;;;;13.77;7.83;;;;;;;9.65;nan;-24086.72;5017264;28;20187;-72
2022/11/04 05:52:27;;;;;;;13.73;7.27;;;;;;;9.84;nan;-24091.94;5015889;28;20184;-74
2022/11/04 05:54:53;;;;;;;10.67;6.27;;;;;;;9.82;nan;-24091.22;5017879;28;20190;-74
2022/11/04 05:57:18;;;;;;;9.57;6.20;;;;;;;10.01;nan;-24096.59;5016168;28;20646;-74
2022/11/04 05:59:44;;;;;;;9.60;5.87;;;;;;;9.80;nan;-24090.66;5018507;28;20602;-74
2022/11/04 06:02:09;;;;;;;11.03;6.43;;;;;;;10.13;nan;-24099.97;5017439;28;20647;-76
2022/11/04 06:04:35;;;;;;;16.87;7.93;;;;;;;10.12;nan;-24099.84;5015797;28;20710;-74
2022/11/04 06:07:00;;;;;;;12.37;6.57;;;;;;;9.94;nan;-24094.63;5017121;28;20184;-75
2022/11/04 06:09:37;;;;;;;12.47;7.07;;;;;;;9.87;nan;-24092.78;5015109;28;20302;-74
2022/11/04 06:12:09;;;;;;;11.43;6.90;;;;;;;10.18;nan;-24101.53;5017439;28;20187;-73
2022/11/04 06:14:34;;;;;;;14.73;6.50;;;;;;;10.22;nan;-24102.53;5016786;28;20180;-74
2022/11/04 06:17:01;;;;;;;12.10;6.50;;;;;;;10.25;nan;-24103.22;5015443;28;20207;-74
2022/11/04 06:19:26;;;;;;;11.20;6.63;;;;;;;10.37;nan;-24106.75;5020534;28;20195;-74
2022/11/04 06:21:52;;;;;;;10.23;5.80;;;;;;;10.33;nan;-24105.63;5016040;28;21113;-74
2022/11/04 06:24:17;;;;;;;15.50;6.77;;;;;;;10.56;nan;-24111.97;5015869;28;20176;-75
2022/11/04 06:26:43;;;;;;;14.80;6.20;;;;;;;10.53;nan;-24111.28;5017644;28;20250;-76
2022/11/04 06:29:08;;;;;;;13.00;7.03;;;;;;;10.65;nan;-24114.53;5017836;28;20368;-73
2022/11/04 06:31:34;;;;;;;13.77;6.67;;;;;;;10.52;nan;-24111.00;5016716;28;20183;-74
2022/11/04 06:34:00;;;;;;;8.73;5.17;;;;;;;10.73;nan;-24116.63;5016877;28;20237;-73
2022/11/04 06:36:25;;;;;;;9.73;6.30;;;;;;;10.58;nan;-24112.69;5017173;28;20393;-73
2022/11/04 06:38:51;;;;;;;11.03;7.23;;;;;;;10.92;nan;-24122.00;5016620;28;20183;-75
2022/11/04 06:41:17;;;;;;;10.53;6.20;;;;;;;10.70;nan;-24115.78;5016409;28;20195;-74
2022/11/04 06:43:42;;;;;;;11.37;6.43;;;;;;;10.59;nan;-24112.97;5015881;28;20186;-74
2022/11/04 06:46:41;;;;;;;12.63;7.17;;;;;;;11.24;nan;-24131.03;5016232;28;20187;-73
2022/11/04 06:49:11;;;;;;;13.57;6.38;;;;;;;11.15;nan;-24128.47;5017143;28;20204;-73
2022/11/04 06:51:37;;;;;;;12.57;6.30;;;;;;;11.19;nan;-24129.59;5016570;28;20194;-74
2022/11/04 06:54:03;;;;;;;15.40;7.10;;;;;;;11.14;nan;-24128.06;5022172;28;20183;-74
2022/11/04 06:56:28;;;;;;;12.67;6.27;;;;;;;11.23;nan;-24130.59;5016650;28;20212;-74
2022/11/04 06:58:54;;;;;;;12.68;6.95;;;;;;;11.33;nan;-24133.56;5015617;28;20179;-74
2022/11/04 07:01:21;;;;;;;14.07;7.70;;;;;;;11.43;nan;-24136.38;5016280;28;20541;-74
2022/11/04 07:03:51;;;;;;;13.70;6.77;;;;;;;11.51;nan;-24138.63;5017015;28;20725;-73
2022/11/04 07:06:17;;;;;;;12.30;6.70;;;;;;;11.42;nan;-24135.97;5017681;28;21827;-74
2022/11/04 07:08:43;;;;;;;15.88;7.20;;;;;;;11.34;nan;-24133.84;5016929;28;20179;-75
2022/11/04 07:11:08;;;;;;;13.65;7.28;;;;;;;11.44;nan;-24136.66;5016323;28;20191;-73
2022/11/04 07:13:33;;;;;;;12.75;6.88;;;;;;;11.67;nan;-24143.00;5031566;28;20223;-73
2022/11/04 07:15:59;;;;;;;12.70;7.27;;;;;;;10.86;nan;-24120.31;5021088;28;20242;-74
2022/11/04 07:18:25;;;;;;;15.25;7.28;;;;;;;11.88;nan;-24148.78;5015261;28;20182;-74
2022/11/04 07:20:50;;;;;;;12.70;7.70;;;;;;;12.08;nan;-24154.41;5016901;28;20604;-73
2022/11/04 07:23:16;;;;;;;17.17;7.35;;;;;;;12.15;nan;-24156.38;5016632;28;20187;-73
2022/11/04 07:25:42;;;;;;;17.27;7.53;;;;;;;12.07;nan;-24154.13;5015696;28;20309;-73
2022/11/04 07:28:07;;;;;;;12.50;7.38;;;;;;;12.07;nan;-24154.00;5014864;28;20188;-73
2022/11/04 07:30:33;;;;;;;19.08;7.93;;;;;;;12.28;nan;-24160.03;5017008;28;20186;-73
2022/11/04 07:32:58;;;;;;;16.92;7.10;;;;;;;12.29;nan;-24160.31;5016154;28;20629;-72
2022/11/04 07:35:24;;;;;;;16.73;7.95;;;;;;;12.32;nan;-24161.03;5014249;28;20272;-74
2022/11/04 07:37:49;;;;;;;16.05;8.18;;;;;;;12.30;nan;-24160.47;5016957;28;20211;-73
2022/11/04 07:40:15;;;;;;;20.98;8.77;;;;;;;12.00;nan;-24152.16;5031148;28;22545;-74
2022/11/04 07:42:40;;;;;;;18.70;8.57;;;;;;;12.49;nan;-24165.66;5016934;28;20194;-74
2022/11/04 07:45:06;;;;;;;18.40;8.32;;;;;;;12.46;nan;-24164.97;5016510;28;20344;-73
2022/11/04 07:47:32;;;;;;;24.85;7.57;;;;;;;12.49;nan;-24165.66;5016229;28;20589;-74
2022/11/04 07:49:57;;;;;;;20.63;8.93;;;;;;;12.95;nan;-24178.59;5015985;28;20238;-73
2022/11/04 07:52:24;;;;;;;22.40;9.45;;;;;;;12.88;nan;-24176.63;5016033;28;20187;-73
2022/11/04 07:54:49;;;;;;;18.63;8.18;;;;;;;12.68;nan;-24171.00;5015925;28;20220;-73
2022/11/04 07:57:15;;;;;;;18.63;8.15;;;;;;;13.05;nan;-24181.41;5017232;28;20750;-72
2022/11/04 07:59:40;;;;;;;16.17;7.38;;;;;;;12.90;nan;-24177.06;5015956;28;20184;-71
2022/11/04 08:02:05;;;;;;;16.95;8.43;;;;;;;12.95;nan;-24178.47;5016164;28;20187;-73
2022/11/04 08:04:31;;;;;;;21.77;8.18;;;;;;;13.42;nan;-24191.66;5016971;28;21600;-72
2022/11/04 08:06:57;;;;;;;16.02;7.65;;;;;;;13.33;nan;-24189.16;5014892;28;20180;-72
2022/11/04 08:09:22;;;;;;;14.05;7.10;;;;;;;13.67;nan;-24198.56;5015205;28;20547;-73
2022/11/04 08:11:47;;;;;;;16.15;7.80;;;;;;;;;;5016527;28;20191;-74
2022/11/04 08:14:13;;;;;;;14.50;7.35;;;;;;;14.41;nan;-24219.03;5014287;28;20222;-72
2022/11/04 08:16:39;;;;;;;14.40;8.05;;;;;;;14.61;nan;-24224.66;5014072;28;20211;-73
2022/11/04 08:19:05;;;;;;;16.80;8.35;;;;;;;14.71;nan;-24227.31;5016609;28;20658;-73
2022/11/04 08:21:32;;;;;;;21.15;9.05;;;;;;;14.24;nan;-24214.41;5034850;28;20183;-74
2022/11/04 08:23:58;;;;;;;15.85;6.82;;;;;;;15.04;nan;-24236.72;5017438;28;20219;-74
2022/11/04 08:26:23;;;;;;;13.23;7.75;;;;;;;14.65;nan;-24225.63;5018362;28;20269;-74
2022/11/04 08:28:50;;;;;;;17.77;7.43;;;;;;;14.89;nan;-24232.38;5020336;28;20318;-73
2022/11/04 08:31:23;;;;;;;11.40;7.32;;;;;;;14.88;nan;-24232.22;5019591;28;20199;-73
2022/11/04 08:33:49;;;;;;;15.93;7.85;;;;;;;14.91;nan;-24233.06;5025827;28;20562;-68
2022/11/04 08:36:21;;;;;;;15.25;8.25;;;;;;;15.08;nan;-24237.53;5018210;28;20199;-71
2022/11/04 08:38:46;;;;;;;16.73;8.15;;;;;;;14.96;nan;-24234.31;5019468;28;20182;-70
2022/11/04 08:41:14;;;;;;;21.13;8.82;;;;;;;14.83;nan;-24230.81;5018437;28;21549;-71
2022/11/04 08:43:39;;;;;;;15.82;8.02;;;;;;;15.09;nan;-24237.97;5018301;28;20195;-70
2022/11/04 08:46:07;;;;;;;16.45;7.68;;;;;;;15.36;nan;-24245.38;5019326;28;20183;-70
2022/11/04 08:48:34;;;;;;;16.02;8.13;;;;;;;15.18;nan;-24240.34;5018612;28;20183;-70
2022/11/04 08:51:00;;;;;;;16.52;6.88;;;;;;;15.70;nan;-24254.78;5019221;28;20263;-72
2022/11/04 08:53:26;;;;;;;15.40;7.25;;;;;;;15.70;nan;-24254.91;5018529;28;20212;-70
2022/11/04 08:55:52;;;;;;;13.45;7.35;;;;;;;15.31;nan;-24244.13;5018381;28;20219;-70
2022/11/04 08:58:19;;;;;;;18.58;7.65;;;;;;;15.67;nan;-24254.06;5019376;28;20674;-71
2022/11/04 09:00:44;;;;;;;18.55;7.57;;;;;;;16.14;nan;-24267.09;5021578;28;20187;-70
2022/11/04 09:03:10;;;;;;;15.32;8.20;;;;;;;16.06;nan;-24264.84;5019724;28;20218;-70
2022/11/04 09:05:44;;;;;;;20.98;8.25;;;;;;;16.17;nan;-24267.94;5026939;28;20317;-70
2022/11/04 09:08:15;;;;;;;18.10;8.13;;;;;;;16.42;nan;-24274.63;5032311;28;20662;-69
2022/11/04 09:10:46;;;;;;;14.68;7.88;;;;;;;16.58;nan;-24279.13;5026890;28;20275;-69
2022/11/04 09:13:14;;;;;;;19.38;7.85;;;;;;;16.61;nan;-24280.09;5014166;28;20176;-69
2022/11/04 09:15:39;;;;;;;13.52;7.05;;;;;;;16.26;nan;-24270.44;5025510;28;20203;-71
2022/11/04 09:18:05;;;;;;;11.95;6.45;;;;;;;16.43;nan;-24275.06;5034293;28;20695;-70
2022/11/04 09:20:30;;;;;;;13.55;6.75;;;;;;;16.26;nan;-24270.31;5034093;28;20555;-69
2022/11/04 09:22:57;;;;;;;16.85;6.72;;;;;;;15.94;nan;-24261.34;5033536;28;20169;-69
2022/11/04 09:25:22;;;;;;;13.45;6.28;;;;;;;16.75;nan;-24283.88;5033403;28;20248;-69
2022/11/04 09:27:47;;;;;;;16.75;7.45;;;;;;;16.51;nan;-24277.28;5033872;28;20702;-71
2022/11/04 09:30:13;;;;;;;15.52;7.10;;;;;;;16.45;nan;-24275.63;5032934;28;20585;-70
2022/11/04 09:32:38;;;;;;;13.15;6.30;;;;;;;16.15;nan;-24267.38;5033388;28;20206;-69
2022/11/04 09:35:04;;;;;;;17.38;6.88;;;;;;;15.99;nan;-24262.88;5033905;28;20179;-71
2022/11/04 09:37:29;;;;;;;13.88;7.15;;;;;;;15.65;nan;-24253.50;5033827;28;20638;-70
2022/11/04 09:39:55;;;;;;;16.67;7.25;;;;;;;15.77;nan;-24256.88;5033658;28;20175;-70
2022/11/04 09:43:06;;;;;;;19.67;7.97;;;;;;;15.87;nan;-24259.66;5032992;28;20178;-69
2022/11/04 09:45:32;;;;;;;18.13;7.50;;;;;;;15.17;nan;-24240.06;5033320;28;20179;-71
2022/11/04 09:48:05;;;;;;;12.32;6.35;;;;;;;15.14;nan;-24239.38;5033227;28;20167;-70
2022/11/04 09:50:43;;;;;;;15.13;7.05;;;;;;;15.64;nan;-24253.09;5032857;28;20178;-69
2022/11/04 09:53:35;;;;;;;15.18;6.60;;;;;;;15.61;nan;-24252.41;5032975;28;20163;-71
2022/11/04 09:56:10;;;;;;;14.85;7.15;;;;;;;15.54;nan;-24250.44;5032951;28;20281;-70
2022/11/04 09:58:37;;;;;;;16.77;6.78;;;;;;;15.50;nan;-24249.31;5033037;28;20163;-69
2022/11/04 10:01:18;;;;;;;16.38;7.40;;;;;;;15.64;nan;-24253.22;5032881;28;20185;-69
2022/11/04 10:04:22;;;;;;;14.48;6.32;;;;;;;15.71;nan;-24255.19;5033021;28;20635;-70
2022/11/04 10:06:56;;;;;;;13.18;6.32;;;;;;;15.79;nan;-24257.44;5033581;28;20171;-70
2022/11/04 10:09:45;;;;;;;16.45;7.32;;;;;;;15.93;nan;-24261.22;5026254;28;20174;-69
2022/11/04 10:12:21;;;;;;;14.13;6.53;;;;;;;15.89;nan;-24260.22;5018022;28;20195;-70
2022/11/04 10:14:49;;;;;;;18.58;7.18;;;;;;;15.76;nan;-24256.59;5016965;28;20180;-71
2022/11/04 10:17:44;;;;;;;11.82;6.57;;;;;;;15.64;nan;-24253.22;5017194;28;20297;-69
2022/11/04 10:20:31;;;;;;;12.07;6.47;;;;;;;15.89;nan;-24260.22;5015136;28;20196;-72
2022/11/04 10:23:21;;;;;;;19.70;7.00;;;;;;;15.97;nan;-24262.31;5016769;28;20180;-72
2022/11/04 10:25:57;;;;;;;17.05;7.30;;;;;;;16.49;nan;-24276.59;5016783;28;20734;-71
2022/11/04 10:28:32;;;;;;;15.98;7.13;;;;;;;16.48;nan;-24276.31;5019708;28;20282;-69
2022/11/04 10:30:59;;;;;;;19.52;6.53;;;;;;;16.47;nan;-24276.03;5020692;28;20183;-71
2022/11/04 10:33:43;;;;;;;16.55;6.63;;;;;;;16.59;nan;-24279.53;5020035;28;20626;-72
2022/11/04 10:36:11;;;;;;;13.10;6.75;;;;;;;16.50;nan;-24277.00;5020259;28;20199;-69
2022/11/04 10:38:45;;;;;;;16.42;6.90;;;;;;;16.81;nan;-24285.41;5025377;28;20191;-69
2022/11/04 10:41:22;;;;;;;20.25;6.85;;;;;;;17.00;nan;-24290.72;5031748;28;20243;-71
2022/11/04 10:43:51;;;;;;;11.43;6.78;;;;;;;16.77;nan;-24284.56;5011316;28;20187;-69
2022/11/04 10:46:37;;;;;;;18.83;6.35;;;;;;;17.01;nan;-24291.13;5011824;28;20179;-70
2022/11/04 10:49:24;;;;;;;16.38;6.60;;;;;;;16.94;nan;-24289.03;5011756;28;20230;-70
2022/11/04 10:51:50;;;;;;;18.30;6.68;;;;;;;16.79;nan;-24284.97;5011558;28;20639;-72
2022/11/04 10:54:15;;;;;;;14.10;6.32;;;;;;;16.81;nan;-24285.53;5011928;28;20255;-70
2022/11/04 10:56:46;;;;;;;13.65;6.40;;;;;;;16.58;nan;-24279.25;5011374;28;20737;-71
2022/11/04 10:59:41;;;;;;;17.80;7.90;;;;;;;16.96;nan;-24289.59;5012014;28;20222;-71
2022/11/04 11:02:06;;;;;;;15.45;6.50;;;;;;;16.78;nan;-24284.69;5012073;28;20259;-71
2022/11/04 11:04:34;;;;;;;16.45;6.43;;;;;;;16.71;nan;-24282.75;5011461;28;20275;-70
2022/11/04 11:07:04;;;;;;;22.58;7.43;;;;;;;16.95;nan;-24289.31;5011792;28;20222;-68
2022/11/04 11:09:35;;;;;;;12.38;6.20;;;;;;;17.24;nan;-24297.41;5011437;28;20271;-70
2022/11/04 11:12:12;;;;;;;16.83;6.45;;;;;;;16.83;nan;-24285.97;5012131;28;20180;-69
2022/11/04 11:14:38;;;;;;;12.48;6.38;;;;;;;16.69;nan;-24282.19;5011757;28;20271;-70
2022/11/04 11:17:34;;;;;;;18.05;6.85;;;;;;;16.91;nan;-24288.19;5011281;28;20278;-70
2022/11/04 11:20:10;;;;;;;13.60;6.57;;;;;;;17.00;nan;-24290.84;5011310;28;20175;-70
2022/11/04 11:22:36;;;;;;;10.93;6.07;;;;;;;17.25;nan;-24297.69;5011191;28;20160;-70
2022/11/04 11:25:24;;;;;;;14.32;6.45;;;;;;;17.33;nan;-24299.91;5011482;28;20658;-72
2022/11/04 11:27:50;;;;;;;18.67;7.10;;;;;;;17.42;nan;-24302.28;5022084;28;20671;-70
2022/11/04 11:30:21;;;;;;;17.35;6.72;;;;;;;17.52;nan;-24305.22;5009443;28;20254;-69
2022/11/04 11:32:52;;;;;;;14.77;6.85;;;;;;;17.46;nan;-24303.56;5008722;28;20212;-70
2022/11/04 11:35:20;;;;;;;15.35;6.22;;;;;;;17.86;nan;-24314.56;5010717;28;20160;-71
2022/11/04 11:37:46;;;;;;;14.98;6.75;;;;;;;17.84;nan;-24314.00;5010716;28;20663;-71
2022/11/04 11:40:30;;;;;;;14.13;6.38;;;;;;;17.85;nan;-24314.16;5010802;28;20175;-69
2022/11/04 11:42:59;;;;;;;13.05;6.32;;;;;;;17.77;nan;-24311.91;5010444;28;20168;-69
2022/11/04 11:45:26;;;;;;;16.33;6.75;;;;;;;18.04;nan;-24319.59;5010330;28;20183;-71
2022/11/04 11:47:55;;;;;;;15.50;6.72;;;;;;;18.27;nan;-24325.88;5011190;28;20275;-70
2022/11/04 11:50:34;;;;;;;14.35;7.05;;;;;;;18.46;nan;-24331.16;5011293;28;20246;-69
2022/11/04 11:53:13;;;;;;;11.05;6.00;;;;;;;18.62;nan;-24335.34;5011785;28;20175;-71
2022/11/04 11:55:43;;;;;;;16.52;6.85;;;;;;;18.95;nan;-24344.53;5014560;28;20581;-73
2022/11/04 11:58:22;;;;;;;11.45;5.90;;;;;;;18.87;nan;-24342.31;5015575;28;20169;-72
2022/11/04 12:00:58;;;;;;;13.68;6.53;;;;;;;18.94;nan;-24344.25;5015542;28;20175;-71
2022/11/04 12:03:31;;;;;;;14.07;6.35;;;;;;;18.86;nan;-24342.03;5015704;28;20175;-71
2022/11/04 12:06:36;;;;;;;13.43;6.78;;;;;;;18.95;nan;-24344.66;5015723;28;20233;-71
2022/11/04 12:09:07;;;;;;;11.90;5.93;;;;;;;19.11;nan;-24348.97;5014443;28;20639;-69
2022/11/04 12:11:39;;;;;;;11.98;6.45;;;;;;;19.04;nan;-24346.91;5014897;28;20619;-71
2022/11/04 12:14:17;;;;;;;12.07;6.28;;;;;;;19.21;nan;-24351.75;5015189;28;20175;-70
2022/11/04 12:16:53;;;;;;;15.63;6.63;;;;;;;19.27;nan;-24353.28;5015078;28;20728;-69
2022/11/04 12:19:43;;;;;;;12.82;6.35;;;;;;;19.44;nan;-24358.03;5015286;28;20226;-71
2022/11/04 12:22:20;;;;;;;15.35;6.72;;;;;;;19.51;nan;-24359.84;5014673;28;20490;-71
2022/11/04 12:24:46;;;;;;;16.77;6.07;;;;;;;19.53;nan;-24360.38;5014833;28;20257;-71
2022/11/04 12:27:19;;;;;;;15.15;6.63;;;;;;;19.33;nan;-24354.97;5014953;28;20223;-70